Time;durP1;ratioP1;P1;durP2;ratioP2;P2;SDS_P1;SDS_P2;PMS_P1;PMS_P2;Temp;Humidity;BMP_temperature;BMP_pressure;BME280_temperature;BME280_humidity;BME280_pressure;Samples;Min_cycle;Max_cycle;Signal;HPM_P1;HPM_P2
2021/10/05 00:00:59;;;;;;;6.03;5.53;;;13.80;99.90;;;;;;4821226;29;20419;-83
2021/10/05 00:03:32;;;;;;;5.07;4.57;;;13.80;99.90;;;;;;4849586;29;20410;-82
2021/10/05 00:06:24;;;;;;;5.93;4.50;;;13.90;99.90;;;;;;4838953;29;20414;-82
2021/10/05 00:09:13;;;;;;;6.37;5.70;;;13.90;99.90;;;;;;4799588;29;20410;-81
2021/10/05 00:11:44;;;;;;;6.23;5.10;;;13.90;99.90;;;;;;4798951;29;20415;-80
2021/10/05 00:14:21;;;;;;;4.77;4.27;;;13.90;99.90;;;;;;4788498;30;20427;-81
2021/10/05 00:16:50;;;;;;;6.03;5.53;;;13.90;99.90;;;;;;4772004;30;20481;-82
2021/10/05 00:19:46;;;;;;;6.37;5.80;;;13.90;99.90;;;;;;4763342;30;20431;-83
2021/10/05 00:23:05;;;;;;;6.10;5.47;;;13.90;99.90;;;;;;4780105;30;20405;-82
2021/10/05 00:25:39;;;;;;;6.37;5.77;;;13.80;99.90;;;;;;4759291;30;20517;-82
2021/10/05 00:28:28;;;;;;;5.13;4.73;;;13.80;99.90;;;;;;4790115;29;20423;-84
2021/10/05 00:31:09;;;;;;;6.00;5.30;;;13.80;99.90;;;;;;4776622;30;20496;-82
2021/10/05 00:33:42;;;;;;;7.23;5.83;;;13.80;99.90;;;;;;4773647;30;20436;-82
2021/10/05 00:36:15;;;;;;;6.40;5.47;;;13.80;99.90;;;;;;4777960;30;20519;-82
2021/10/05 00:38:52;;;;;;;4.87;4.47;;;13.80;99.90;;;;;;4783437;29;20548;-83
2021/10/05 00:41:40;;;;;;;5.50;5.00;;;13.80;99.90;;;;;;4818269;29;20469;-82
2021/10/05 00:44:17;;;;;;;4.60;4.20;;;13.80;99.90;;;;;;4865405;29;20569;-82
2021/10/05 00:47:10;;;;;;;6.43;5.00;;;13.90;99.90;;;;;;4869767;29;20408;-82
2021/10/05 00:49:59;;;;;;;6.33;5.80;;;13.90;99.90;;;;;;4874289;29;20446;-81
2021/10/05 00:52:55;;;;;;;9.83;6.60;;;13.90;99.90;;;;;;4858669;29;20414;-83
2021/10/05 00:55:44;;;;;;;5.07;4.57;;;13.90;99.90;;;;;;4851199;29;20827;-83
2021/10/05 00:58:13;;;;;;;5.80;5.27;;;13.90;99.90;;;;;;4836576;29;20517;-83
2021/10/05 01:00:46;;;;;;;5.63;5.03;;;13.90;99.90;;;;;;4844061;29;20438;-83
2021/10/05 01:03:21;;;;;;;6.40;5.27;;;13.80;99.90;;;;;;4864009;29;20439;-83
2021/10/05 01:05:48;;;;;;;11.47;5.90;;;13.80;99.90;;;;;;4854304;29;20881;-83
2021/10/05 01:08:35;;;;;;;5.63;5.13;;;13.80;99.90;;;;;;4840035;29;20440;-83
2021/10/05 01:11:01;;;;;;;5.80;4.70;;;13.80;99.90;;;;;;4868811;29;20946;-83
2021/10/05 01:14:06;;;;;;;5.20;4.80;;;13.80;99.90;;;;;;4835240;29;20428;-83
2021/10/05 01:17:08;;;;;;;4.37;4.03;;;13.80;99.90;;;;;;4813677;29;20573;-83
2021/10/05 01:20:07;;;;;;;6.00;4.77;;;13.80;99.90;;;;;;4861608;29;20420;-84
2021/10/05 01:22:54;;;;;;;5.43;4.63;;;13.80;99.90;;;;;;4849412;29;20490;-84
2021/10/05 01:25:43;;;;;;;4.90;4.23;;;13.80;99.90;;;;;;4867985;29;20423;-83
2021/10/05 01:28:14;;;;;;;5.03;4.63;;;13.80;99.90;;;;;;4816524;29;20425;-82
2021/10/05 01:31:09;;;;;;;5.07;4.67;;;13.80;99.90;;;;;;4849204;29;20509;-84
2021/10/05 01:33:51;;;;;;;11.37;5.47;;;13.80;99.90;;;;;;4834599;29;20769;-82
2021/10/05 01:36:19;;;;;;;5.00;4.30;;;13.80;99.90;;;;;;4834508;29;20579;-83
2021/10/05 01:39:08;;;;;;;5.20;4.70;;;13.80;99.90;;;;;;4840122;29;20430;-83
2021/10/05 01:42:08;;;;;;;5.70;4.20;;;13.80;99.90;;;;;;4846918;29;20445;-84
2021/10/05 01:44:55;;;;;;;5.60;5.10;;;13.80;99.90;;;;;;4834766;29;20478;-83
2021/10/05 01:47:49;;;;;;;5.00;4.60;;;13.80;99.90;;;;;;4841560;29;20425;-83
2021/10/05 01:50:18;;;;;;;5.60;5.10;;;13.80;99.90;;;;;;4827824;29;20510;-83
2021/10/05 01:53:06;;;;;;;5.60;5.10;;;13.70;99.90;;;;;;4831164;29;20795;-83
2021/10/05 01:55:58;;;;;;;7.20;6.50;;;13.80;99.90;;;;;;4813092;29;20942;-83
2021/10/05 01:58:27;;;;;;;5.67;4.97;;;13.80;99.90;;;;;;4821949;29;20430;-84
2021/10/05 02:01:16;;;;;;;4.73;4.33;;;13.80;99.90;;;;;;4814807;29;20434;-83
2021/10/05 02:03:43;;;;;;;7.20;4.30;;;13.80;99.90;;;;;;4817671;29;20824;-83
2021/10/05 02:06:15;;;;;;;4.80;4.40;;;13.80;99.90;;;;;;4814190;29;20520;-83
2021/10/05 02:08:43;;;;;;;7.00;4.40;;;13.70;99.90;;;;;;4796020;29;20436;-84
2021/10/05 02:11:18;;;;;;;5.80;5.30;;;13.70;99.90;;;;;;4780403;30;20423;-83
2021/10/05 02:14:07;;;;;;;6.07;5.47;;;13.70;99.90;;;;;;4784663;30;20436;-83
2021/10/05 02:16:36;;;;;;;6.17;5.27;;;13.70;99.90;;;;;;4803188;29;20471;-83
2021/10/05 02:19:16;;;;;;;5.80;5.20;;;13.70;99.90;;;;;;4825216;29;20431;-83
2021/10/05 02:21:51;;;;;;;5.13;4.57;;;13.70;99.90;;;;;;4827935;29;20440;-83
2021/10/05 02:27:19;;;;;;;5.07;4.67;;;13.70;99.90;;;;;;4867520;29;20484;-83
2021/10/05 02:30:08;;;;;;;6.17;5.57;;;13.60;99.90;;;;;;4853065;29;20519;-82
2021/10/05 02:32:34;;;;;;;6.57;5.40;;;13.60;99.90;;;;;;4868007;29;20852;-82
2021/10/05 02:35:09;;;;;;;6.47;5.53;;;13.60;99.90;;;;;;4871030;29;20460;-83
2021/10/05 02:37:38;;;;;;;4.93;4.43;;;13.60;99.90;;;;;;4857610;29;20432;-82
2021/10/05 02:40:10;;;;;;;4.87;4.43;;;13.60;99.90;;;;;;4873734;29;20437;-83
2021/10/05 02:42:41;;;;;;;6.13;5.53;;;13.70;99.90;;;;;;4868850;29;20399;-82
2021/10/05 02:45:53;;;;;;;7.03;5.20;;;13.60;99.90;;;;;;4819935;29;20483;-82
2021/10/05 02:48:41;;;;;;;6.70;6.00;;;13.60;99.90;;;;;;4814157;29;20211;-82
2021/10/05 02:51:33;;;;;;;7.70;5.60;;;13.60;99.90;;;;;;4764602;30;20802;-82
2021/10/05 02:54:05;;;;;;;6.40;5.13;;;13.60;99.90;;;;;;4725024;30;20514;-83
2021/10/05 02:56:42;;;;;;;6.43;5.80;;;13.60;99.90;;;;;;4725701;30;20608;-83
2021/10/05 02:59:29;;;;;;;7.80;4.70;;;13.60;99.90;;;;;;4758176;30;20428;-82
2021/10/05 03:02:04;;;;;;;5.80;5.27;;;13.60;99.90;;;;;;4760151;30;20468;-82
2021/10/05 03:05:04;;;;;;;7.97;5.97;;;13.60;99.90;;;;;;4773288;30;20405;-83
2021/10/05 03:07:35;;;;;;;6.03;5.43;;;13.70;99.90;;;;;;4759477;30;20540;-82
2021/10/05 03:10:05;;;;;;;6.87;5.97;;;13.70;99.90;;;;;;4758888;30;20931;-82
2021/10/05 03:12:33;;;;;;;7.30;5.80;;;13.70;99.90;;;;;;4770382;30;20417;-80
2021/10/05 03:15:06;;;;;;;7.23;6.30;;;13.60;99.90;;;;;;4767138;30;20418;-82
2021/10/05 03:17:59;;;;;;;6.00;5.50;;;13.60;99.90;;;;;;4760736;30;20561;-83
2021/10/05 03:20:29;;;;;;;5.30;4.80;;;13.60;99.90;;;;;;4782461;29;20525;-83
2021/10/05 03:22:55;;;;;;;6.70;4.70;;;13.70;99.90;;;;;;4811862;29;20414;-83
2021/10/05 03:25:32;;;;;;;5.93;5.43;;;13.70;99.90;;;;;;4785698;29;20838;-82
2021/10/05 03:28:05;;;;;;;6.73;6.13;;;13.60;99.90;;;;;;4766689;30;20421;-83
2021/10/05 03:30:40;;;;;;;5.60;5.10;;;13.60;99.90;;;;;;4722575;30;20467;-82
2021/10/05 03:33:30;;;;;;;5.23;4.73;;;13.60;99.90;;;;;;4716943;30;20433;-82
2021/10/05 03:36:04;;;;;;;8.57;5.60;;;13.70;99.90;;;;;;4794561;29;20470;-82
2021/10/05 03:38:29;;;;;;;5.77;5.13;;;13.60;99.90;;;;;;4794462;30;20431;-83
2021/10/05 03:41:18;;;;;;;5.70;5.20;;;13.60;99.90;;;;;;4809598;29;20412;-83
2021/10/05 03:43:50;;;;;;;6.37;5.10;;;13.60;99.90;;;;;;4808194;29;20404;-83
2021/10/05 03:46:19;;;;;;;4.90;4.40;;;13.60;99.90;;;;;;4810157;29;20507;-83
2021/10/05 03:48:48;;;;;;;5.60;5.10;;;13.70;99.90;;;;;;4817555;29;20435;-83
2021/10/05 03:51:36;;;;;;;6.03;5.53;;;13.70;99.90;;;;;;4859142;29;20471;-82
2021/10/05 03:54:03;;;;;;;5.07;4.23;;;13.70;99.90;;;;;;4832999;29;20918;-82
2021/10/05 03:56:54;;;;;;;5.30;4.80;;;13.70;99.90;;;;;;4848603;29;20499;-82
2021/10/05 03:59:20;;;;;;;7.60;5.67;;;13.70;99.90;;;;;;4848281;29;20435;-82
2021/10/05 04:02:00;;;;;;;5.90;4.70;;;13.60;99.90;;;;;;4819198;29;20492;-82
2021/10/05 04:04:45;;;;;;;5.87;5.27;;;13.60;99.90;;;;;;4831299;29;20425;-82
2021/10/05 04:07:17;;;;;;;7.80;5.33;;;13.70;99.90;;;;;;4814015;29;20433;-82
2021/10/05 04:09:43;;;;;;;5.47;3.87;;;13.60;99.90;;;;;;4822766;29;20441;-83
2021/10/05 04:12:15;;;;;;;7.27;5.00;;;13.60;99.90;;;;;;4806510;29;20440;-83
2021/10/05 04:14:41;;;;;;;8.50;4.90;;;13.60;99.90;;;;;;4811582;29;20460;-82
2021/10/05 04:17:08;;;;;;;5.37;4.87;;;13.60;99.90;;;;;;4846710;29;20485;-83
2021/10/05 04:19:39;;;;;;;5.30;4.80;;;13.60;99.90;;;;;;4845257;29;20435;-82
2021/10/05 04:22:06;;;;;;;4.90;4.50;;;13.60;99.90;;;;;;4815720;29;20494;-82
2021/10/05 04:24:36;;;;;;;5.43;4.93;;;13.60;99.90;;;;;;4815641;29;20912;-82
2021/10/05 04:27:10;;;;;;;4.90;4.43;;;13.50;99.90;;;;;;4796697;29;20416;-83
2021/10/05 04:29:43;;;;;;;7.13;4.63;;;13.60;99.90;;;;;;4794588;30;20495;-83
2021/10/05 04:32:10;;;;;;;3.33;3.03;;;13.50;99.90;;;;;;4827197;29;21014;-82
2021/10/05 04:34:39;;;;;;;3.67;3.37;;;13.50;99.90;;;;;;4820657;29;20470;-83
2021/10/05 04:37:13;;;;;;;4.10;3.70;;;13.50;99.90;;;;;;4809332;29;20478;-83
2021/10/05 04:39:43;;;;;;;5.77;4.07;;;13.50;99.90;;;;;;4839686;29;20499;-83
2021/10/05 04:42:21;;;;;;;3.33;3.03;;;13.50;99.90;;;;;;4836544;29;20445;-82
2021/10/05 04:44:51;;;;;;;4.90;3.40;;;13.50;99.90;;;;;;4824859;29;20411;-83
2021/10/05 04:47:38;;;;;;;5.03;3.37;;;13.50;99.90;;;;;;4810365;29;20495;-83
2021/10/05 04:50:11;;;;;;;4.50;4.00;;;13.50;99.90;;;;;;4768552;30;20436;-83
2021/10/05 04:52:39;;;;;;;6.57;5.23;;;13.50;99.90;;;;;;4787416;29;20516;-83
2021/10/05 04:55:19;;;;;;;5.80;4.47;;;13.40;99.90;;;;;;4818030;29;20446;-83
2021/10/05 04:57:45;;;;;;;5.07;4.50;;;13.40;99.90;;;;;;4847305;29;20448;-82
2021/10/05 05:00:23;;;;;;;4.97;4.40;;;13.40;99.90;;;;;;4859232;29;20478;-82
2021/10/05 05:03:30;;;;;;;5.33;4.67;;;13.40;99.90;;;;;;4859426;29;20424;-82
2021/10/05 05:05:56;;;;;;;6.80;4.70;;;13.50;99.90;;;;;;4849705;29;20439;-82
2021/10/05 05:08:26;;;;;;;7.53;5.27;;;13.50;99.90;;;;;;4849895;29;20416;-82
2021/10/05 05:11:16;;;;;;;5.03;4.30;;;13.40;99.90;;;;;;4832241;29;20429;-82
2021/10/05 05:13:46;;;;;;;7.13;5.00;;;13.50;99.90;;;;;;4799271;29;20467;-82
2021/10/05 05:16:13;;;;;;;6.23;4.60;;;13.50;99.90;;;;;;4798780;29;20462;-82
2021/10/05 05:18:41;;;;;;;6.33;5.60;;;13.50;99.90;;;;;;4810922;29;20501;-83
2021/10/05 05:21:33;;;;;;;5.53;4.83;;;13.40;99.90;;;;;;4813491;29;20458;-82
2021/10/05 05:24:04;;;;;;;7.30;5.70;;;13.40;99.90;;;;;;4832568;29;20454;-83
2021/10/05 05:26:32;;;;;;;6.63;5.23;;;13.30;99.90;;;;;;4834844;29;20447;-82
2021/10/05 05:29:02;;;;;;;5.90;5.10;;;13.30;99.90;;;;;;4849289;29;20436;-82
2021/10/05 05:31:29;;;;;;;6.27;4.90;;;13.30;99.90;;;;;;4853505;29;20476;-83
2021/10/05 05:34:00;;;;;;;6.17;5.57;;;13.30;99.90;;;;;;4861491;29;20423;-83
2021/10/05 05:36:26;;;;;;;4.50;4.10;;;13.30;99.90;;;;;;4882100;29;20470;-83
2021/10/05 05:38:55;;;;;;;10.43;4.40;;;13.30;99.90;;;;;;4869986;29;21052;-83
2021/10/05 05:41:21;;;;;;;4.90;4.50;;;13.20;99.90;;;;;;4896579;29;20566;-82
2021/10/05 05:43:46;;;;;;;7.77;5.60;;;13.20;99.90;;;;;;4921857;29;20457;-82
2021/10/05 05:46:28;;;;;;;6.03;5.13;;;13.20;99.90;;;;;;4903340;29;20471;-83
2021/10/05 05:49:00;;;;;;;4.63;4.23;;;13.20;99.90;;;;;;4920641;29;20522;-83
2021/10/05 05:51:27;;;;;;;6.00;4.83;;;13.20;99.90;;;;;;4930024;29;20428;-83
2021/10/05 05:53:56;;;;;;;4.70;4.30;;;13.20;99.90;;;;;;4931786;29;20448;-84
2021/10/05 05:56:22;;;;;;;5.97;4.13;;;13.20;99.90;;;;;;4948290;29;20470;-83
2021/10/05 05:58:52;;;;;;;4.53;4.13;;;13.10;99.90;;;;;;4942004;29;20692;-82
2021/10/05 06:01:21;;;;;;;4.80;4.17;;;13.20;99.90;;;;;;4933557;28;20194;-83
2021/10/05 06:03:49;;;;;;;5.93;3.57;;;13.10;99.90;;;;;;4909794;29;20440;-83
2021/10/05 06:06:17;;;;;;;6.70;4.37;;;13.10;99.90;;;;;;4908884;29;20443;-83
2021/10/05 06:08:45;;;;;;;4.33;3.67;;;13.10;99.90;;;;;;4925121;29;20479;-83
2021/10/05 06:11:18;;;;;;;4.23;3.57;;;13.00;99.90;;;;;;4927660;29;20404;-83
2021/10/05 06:13:47;;;;;;;3.57;3.17;;;13.10;99.90;;;;;;4927322;29;20437;-83
2021/10/05 06:16:32;;;;;;;4.13;3.60;;;13.00;99.90;;;;;;4905513;29;20850;-83
2021/10/05 06:19:08;;;;;;;3.87;3.20;;;13.00;99.90;;;;;;4957705;29;20423;-82
2021/10/05 06:21:44;;;;;;;3.17;2.90;;;13.00;99.90;;;;;;4902051;29;20461;-82
2021/10/05 06:24:22;;;;;;;3.20;2.93;;;13.00;99.90;;;;;;4855269;29;20438;-81
2021/10/05 06:27:07;;;;;;;4.00;3.70;;;13.00;99.90;;;;;;4874315;29;20459;-82
2021/10/05 06:29:36;;;;;;;3.37;3.07;;;13.00;99.90;;;;;;4809733;29;20536;-82
2021/10/05 06:32:02;;;;;;;3.50;3.20;;;13.00;99.90;;;;;;4813238;29;20492;-83
2021/10/05 06:34:31;;;;;;;3.40;2.67;;;13.00;99.90;;;;;;4829509;29;20451;-83
2021/10/05 06:36:59;;;;;;;3.50;3.20;;;13.10;99.90;;;;;;4851978;29;20560;-83
2021/10/05 06:39:29;;;;;;;3.77;3.47;;;13.10;99.90;;;;;;4865192;29;20546;-82
2021/10/05 06:42:15;;;;;;;3.73;3.17;;;13.10;99.90;;;;;;4870686;29;20469;-83
2021/10/05 06:44:47;;;;;;;4.53;3.10;;;13.10;99.90;;;;;;4876392;29;20434;-83
2021/10/05 06:47:13;;;;;;;3.07;2.87;;;13.10;99.90;;;;;;4851060;29;20449;-82
2021/10/05 06:49:41;;;;;;;3.20;2.90;;;13.10;99.90;;;;;;4851187;29;20431;-84
2021/10/05 06:52:14;;;;;;;2.43;2.23;;;13.10;99.90;;;;;;4847663;29;20489;-84
2021/10/05 06:54:40;;;;;;;2.60;2.40;;;13.10;99.90;;;;;;4826760;29;20519;-83
2021/10/05 06:57:28;;;;;;;2.97;2.70;;;13.00;99.90;;;;;;4828342;29;20476;-83
2021/10/05 06:59:56;;;;;;;2.80;2.53;;;13.10;99.90;;;;;;4873311;29;20446;-82
2021/10/05 07:02:27;;;;;;;2.50;2.20;;;13.20;99.90;;;;;;4888378;29;20807;-84
2021/10/05 07:04:59;;;;;;;2.10;2.00;;;13.20;99.90;;;;;;4898909;29;20549;-84
2021/10/05 07:07:29;;;;;;;2.27;2.07;;;13.20;99.90;;;;;;4914699;29;20963;-82
2021/10/05 07:09:55;;;;;;;3.00;2.60;;;13.20;99.90;;;;;;4925479;29;20458;-83
2021/10/05 07:12:21;;;;;;;2.77;2.57;;;13.20;99.90;;;;;;4939823;29;20440;-83
2021/10/05 07:14:48;;;;;;;2.70;2.50;;;13.20;99.90;;;;;;4939505;29;20215;-83
2021/10/05 07:17:14;;;;;;;2.63;2.10;;;13.20;99.90;;;;;;4915356;29;20484;-83
2021/10/05 07:19:43;;;;;;;2.90;2.70;;;13.30;99.90;;;;;;4916108;29;20455;-82
2021/10/05 07:22:12;;;;;;;3.90;2.43;;;13.30;99.90;;;;;;4879904;29;20475;-82
2021/10/05 07:24:49;;;;;;;3.03;2.70;;;13.30;99.90;;;;;;4906731;29;20498;-83
2021/10/05 07:27:19;;;;;;;2.40;2.20;;;13.30;99.90;;;;;;4900461;29;20449;-82
2021/10/05 07:29:55;;;;;;;3.00;2.70;;;13.30;99.90;;;;;;4885021;29;20461;-83
2021/10/05 07:32:21;;;;;;;2.27;2.07;;;13.30;99.90;;;;;;4879845;29;20434;-82
2021/10/05 07:34:48;;;;;;;2.57;2.20;;;13.30;99.90;;;;;;4848842;29;20455;-83
2021/10/05 07:37:26;;;;;;;2.80;2.60;;;13.30;99.90;;;;;;4868885;29;20891;-83
2021/10/05 07:39:53;;;;;;;2.30;2.10;;;13.30;99.90;;;;;;4844715;29;20443;-84
2021/10/05 07:42:40;;;;;;;2.60;2.23;;;13.30;99.90;;;;;;4897087;29;20426;-83
2021/10/05 07:45:11;;;;;;;3.40;2.93;;;13.40;99.90;;;;;;4912666;29;20463;-83
2021/10/05 07:48:00;;;;;;;2.87;2.57;;;13.40;99.90;;;;;;4944013;29;20443;-83
2021/10/05 07:50:49;;;;;;;7.20;4.83;;;13.40;99.90;;;;;;4946371;29;20447;-83
2021/10/05 07:53:20;;;;;;;5.07;3.90;;;13.50;99.90;;;;;;4890082;29;20438;-83
2021/10/05 07:55:49;;;;;;;2.77;2.57;;;13.50;99.90;;;;;;4881825;29;20935;-84
2021/10/05 07:58:19;;;;;;;3.20;3.00;;;13.50;99.90;;;;;;4887141;29;20509;-83
2021/10/05 08:00:53;;;;;;;2.83;2.63;;;13.50;99.90;;;;;;4884796;29;20473;-82
2021/10/05 08:03:21;;;;;;;3.10;2.83;;;13.50;99.90;;;;;;4898688;29;20455;-83
2021/10/05 08:05:53;;;;;;;4.60;3.07;;;13.40;99.90;;;;;;4919508;29;20437;-83
2021/10/05 08:08:44;;;;;;;6.00;3.00;;;13.50;99.90;;;;;;4885430;29;20450;-83
2021/10/05 08:11:18;;;;;;;6.17;3.53;;;13.50;99.90;;;;;;4878956;29;20446;-83
2021/10/05 08:13:47;;;;;;;3.43;3.13;;;13.50;99.90;;;;;;4862698;29;20506;-80
2021/10/05 08:16:21;;;;;;;2.93;2.63;;;13.60;99.90;;;;;;4884940;29;20786;-83
2021/10/05 08:18:56;;;;;;;3.13;2.90;;;13.50;99.90;;;;;;4884932;29;20513;-83
2021/10/05 08:21:35;;;;;;;3.23;2.57;;;13.50;99.90;;;;;;4847249;29;20828;-83
2021/10/05 08:24:04;;;;;;;3.20;2.90;;;13.50;99.90;;;;;;4856407;29;20609;-83
2021/10/05 08:26:38;;;;;;;3.00;2.72;;;13.50;99.90;;;;;;4882021;29;20510;-83
2021/10/05 08:29:06;;;;;;;2.77;2.50;;;13.50;99.90;;;;;;4877874;29;20198;-83
2021/10/05 08:31:36;;;;;;;3.07;2.77;;;13.50;99.90;;;;;;4874653;29;21026;-84
2021/10/05 08:34:03;;;;;;;2.80;2.60;;;13.60;99.90;;;;;;4876450;29;20446;-84
2021/10/05 08:36:32;;;;;;;2.50;2.30;;;13.60;99.90;;;;;;4888190;29;20474;-84
2021/10/05 08:39:01;;;;;;;6.70;2.10;;;13.60;99.90;;;;;;4871504;29;20517;-82
2021/10/05 08:41:30;;;;;;;2.40;2.20;;;13.60;99.90;;;;;;4857523;29;20258;-80
2021/10/05 08:44:20;;;;;;;2.60;2.20;;;13.70;99.90;;;;;;4897424;29;20938;-84
2021/10/05 08:46:47;;;;;;;2.70;2.50;;;13.80;99.90;;;;;;4867603;29;20455;-83
2021/10/05 08:49:25;;;;;;;3.00;2.00;;;13.80;99.90;;;;;;4809769;29;20438;-83
2021/10/05 08:51:57;;;;;;;4.77;2.40;;;13.90;99.90;;;;;;4818405;29;20476;-78
2021/10/05 08:54:32;;;;;;;3.60;2.60;;;14.00;99.90;;;;;;4821451;29;20646;-83
2021/10/05 08:57:00;;;;;;;1.90;1.80;;;13.90;99.90;;;;;;4818325;29;20493;-84
2021/10/05 08:59:33;;;;;;;2.60;2.40;;;13.80;99.90;;;;;;4830894;29;20438;-78
2021/10/05 09:02:22;;;;;;;3.83;2.40;;;13.80;99.90;;;;;;4837320;29;20454;-81
2021/10/05 09:04:57;;;;;;;2.70;2.50;;;13.70;99.90;;;;;;4826265;29;20454;-84
2021/10/05 09:07:24;;;;;;;2.40;2.20;;;13.70;99.90;;;;;;4806151;29;20438;-80
2021/10/05 09:10:00;;;;;;;2.90;2.70;;;13.70;99.90;;;;;;4797215;29;20454;-82
2021/10/05 09:12:30;;;;;;;2.17;1.97;;;13.70;99.90;;;;;;4818580;29;20438;-83
2021/10/05 09:15:02;;;;;;;3.40;2.83;;;13.70;99.90;;;;;;4852468;29;20448;-83
2021/10/05 09:17:31;;;;;;;3.77;2.90;;;13.70;99.90;;;;;;4853439;29;20482;-83
2021/10/05 09:20:00;;;;;;;3.67;2.67;;;13.70;99.90;;;;;;4872362;29;20474;-82
2021/10/05 09:22:30;;;;;;;3.30;3.10;;;13.60;99.90;;;;;;4860935;29;20576;-84
2021/10/05 09:25:10;;;;;;;3.60;2.70;;;13.70;99.90;;;;;;4889936;29;20453;-84
2021/10/05 09:28:15;;;;;;;2.80;2.57;;;13.80;99.90;;;;;;4858981;29;20652;-83
2021/10/05 09:31:08;;;;;;;2.40;2.13;;;13.80;99.90;;;;;;4824026;29;20986;-83
2021/10/05 09:33:39;;;;;;;4.23;3.13;;;13.80;99.90;;;;;;4812556;29;20437;-83
2021/10/05 09:36:06;;;;;;;2.60;2.40;;;13.80;99.90;;;;;;4795619;29;20577;-84
2021/10/05 09:39:09;;;;;;;5.17;4.30;;;13.80;99.90;;;;;;4793789;29;20469;-84
2021/10/05 09:41:39;;;;;;;2.17;2.00;;;13.90;99.90;;;;;;4772754;30;20977;-83
2021/10/05 09:44:28;;;;;;;2.30;2.10;;;13.90;99.90;;;;;;4761508;30;20433;-84
2021/10/05 09:46:53;;;;;;;4.40;1.87;;;13.90;99.90;;;;;;4778851;29;20439;-84
2021/10/05 09:49:23;;;;;;;1.70;1.60;;;13.70;99.90;;;;;;4789395;30;20456;-83
2021/10/05 09:52:11;;;;;;;1.93;1.77;;;13.80;99.90;;;;;;4785158;30;20244;-82
2021/10/05 09:55:03;;;;;;;2.13;1.67;;;13.90;99.90;;;;;;4753957;30;20453;-82
2021/10/05 09:57:33;;;;;;;3.20;2.10;;;13.90;99.90;;;;;;4766017;29;20535;-85
2021/10/05 10:00:00;;;;;;;1.50;1.40;;;13.70;99.90;;;;;;4795777;29;20519;-80
2021/10/05 10:02:43;;;;;;;3.40;1.60;;;13.90;99.90;;;;;;4787293;29;20419;-84
2021/10/05 10:05:15;;;;;;;1.87;1.77;;;14.10;99.90;;;;;;4821080;29;20437;-83
2021/10/05 10:08:11;;;;;;;2.07;1.63;;;14.10;99.90;;;;;;4782553;30;20441;-83
2021/10/05 10:11:04;;;;;;;1.67;1.57;;;14.20;99.90;;;;;;4783501;30;20480;-83
2021/10/05 10:13:54;;;;;;;7.43;2.00;;;14.30;99.90;;;;;;4794009;29;20436;-82
2021/10/05 10:16:26;;;;;;;2.40;1.70;;;14.20;99.90;;;;;;4796416;29;20517;-82
2021/10/05 10:18:59;;;;;;;2.13;1.93;;;14.00;99.90;;;;;;4786001;29;20471;-84
2021/10/05 10:21:28;;;;;;;2.87;1.63;;;14.00;99.90;;;;;;4784115;29;20467;-83
2021/10/05 10:24:29;;;;;;;6.30;3.60;;;14.00;99.90;;;;;;4804774;29;20523;-81
2021/10/05 10:27:02;;;;;;;3.07;2.13;;;13.80;99.90;;;;;;4869333;29;20495;-81
2021/10/05 10:29:49;;;;;;;1.83;1.73;;;14.00;99.90;;;;;;4836766;29;20499;-83
2021/10/05 10:32:19;;;;;;;2.43;1.70;;;14.10;99.90;;;;;;4867625;29;20508;-83
2021/10/05 10:35:07;;;;;;;4.10;3.00;;;14.20;99.90;;;;;;4828776;29;20573;-84
2021/10/05 10:37:52;;;;;;;2.23;1.80;;;14.30;99.90;;;;;;4865343;29;20491;-83
2021/10/05 10:40:32;;;;;;;4.70;2.17;;;14.20;99.90;;;;;;4847273;29;20443;-82
2021/10/05 10:43:08;;;;;;;1.43;1.33;;;14.20;99.90;;;;;;4850266;29;20443;-83
2021/10/05 10:45:45;;;;;;;2.73;2.50;;;14.20;99.90;;;;;;4828337;29;20533;-81
2021/10/05 10:48:23;;;;;;;2.43;2.23;;;14.30;99.90;;;;;;4793648;29;20548;-82
2021/10/05 10:50:49;;;;;;;2.47;1.63;;;14.20;99.90;;;;;;4811081;29;20449;-81
2021/10/05 10:53:33;;;;;;;2.80;2.53;;;14.20;99.90;;;;;;4826507;29;20460;-80
2021/10/05 10:55:59;;;;;;;2.60;1.60;;;14.00;99.90;;;;;;4825998;29;20869;-81
2021/10/05 10:58:44;;;;;;;4.00;2.87;;;14.10;99.90;;;;;;4843497;29;20444;-80
2021/10/05 11:01:50;;;;;;;1.90;1.80;;;14.00;99.90;;;;;;4812782;29;21236;-82
2021/10/05 11:04:24;;;;;;;2.67;2.20;;;14.10;99.90;;;;;;4828430;29;20433;-80
2021/10/05 11:06:53;;;;;;;2.60;2.10;;;14.10;99.90;;;;;;4813350;29;20449;-82
2021/10/05 11:09:28;;;;;;;3.13;1.80;;;14.10;99.90;;;;;;4788119;29;20533;-80
2021/10/05 11:11:57;;;;;;;1.57;1.40;;;14.20;99.90;;;;;;4849658;29;20442;-82
2021/10/05 11:14:28;;;;;;;2.27;2.07;;;14.30;99.90;;;;;;4850774;29;20456;-83
2021/10/05 11:17:02;;;;;;;1.80;1.70;;;14.50;99.90;;;;;;4846267;29;20533;-81
2021/10/05 11:19:31;;;;;;;1.80;1.70;;;14.80;99.90;;;;;;4840537;29;20443;-82
2021/10/05 11:22:00;;;;;;;2.33;1.80;;;14.80;99.90;;;;;;4881113;29;21179;-80
2021/10/05 11:24:45;;;;;;;1.77;1.67;;;15.00;99.90;;;;;;4881421;29;20435;-82
2021/10/05 11:27:23;;;;;;;2.03;1.87;;;14.90;99.90;;;;;;4853805;29;20446;-80
2021/10/05 11:29:59;;;;;;;2.47;2.23;;;14.90;99.90;;;;;;4881956;29;20454;-81
2021/10/05 11:32:28;;;;;;;1.40;1.30;;;14.80;99.90;;;;;;4877363;29;20452;-78
2021/10/05 11:34:54;;;;;;;1.77;1.67;;;14.90;99.90;;;;;;4872091;29;20469;-78
2021/10/05 11:37:21;;;;;;;2.13;1.93;;;15.00;99.90;;;;;;4894726;29;20584;-81
2021/10/05 11:39:50;;;;;;;1.80;1.60;;;15.10;99.90;;;;;;4896257;29;20228;-81
2021/10/05 11:42:21;;;;;;;3.90;2.27;;;14.90;99.90;;;;;;4883262;29;20490;-81
2021/10/05 11:44:50;;;;;;;2.27;2.10;;;14.70;99.90;;;;;;4885970;29;20449;-81
2021/10/05 11:47:21;;;;;;;2.50;2.10;;;14.60;99.90;;;;;;4904284;29;21676;-82
2021/10/05 11:49:51;;;;;;;2.70;2.50;;;14.40;99.90;;;;;;4891570;29;20464;-82
2021/10/05 11:52:19;;;;;;;2.77;2.57;;;14.60;99.90;;;;;;4910711;29;20440;-81
2021/10/05 11:54:48;;;;;;;3.07;2.87;;;15.00;99.90;;;;;;4936401;29;20451;-81
2021/10/05 11:57:37;;;;;;;3.23;2.90;;;15.40;99.90;;;;;;4918057;29;20495;-81
2021/10/05 12:00:09;;;;;;;2.90;2.70;;;15.60;99.90;;;;;;4869672;29;20432;-82
2021/10/05 12:02:40;;;;;;;2.70;2.50;;;15.20;99.90;;;;;;4831113;29;20471;-82
2021/10/05 12:05:09;;;;;;;13.73;12.77;;;15.50;99.90;;;;;;4850632;29;20444;-83
2021/10/05 12:07:38;;;;;;;4.23;3.83;;;15.00;99.90;;;;;;4847968;29;20484;-82
2021/10/05 12:10:24;;;;;;;4.07;2.63;;;14.60;99.90;;;;;;4838173;29;20463;-82
2021/10/05 12:13:15;;;;;;;3.00;2.80;;;14.70;99.90;;;;;;4821169;29;20508;-82
2021/10/05 12:15:41;;;;;;;2.90;2.70;;;14.60;99.90;;;;;;4833657;29;20452;-83
2021/10/05 12:18:10;;;;;;;3.40;3.00;;;14.70;99.90;;;;;;4835202;29;20449;-83
2021/10/05 12:20:36;;;;;;;3.83;3.53;;;14.80;99.90;;;;;;4826480;29;20689;-82
2021/10/05 12:23:21;;;;;;;3.27;2.87;;;15.00;99.90;;;;;;4834182;29;20451;-81
2021/10/05 12:25:47;;;;;;;3.90;3.17;;;14.60;99.90;;;;;;4815028;29;20831;-83
2021/10/05 12:28:38;;;;;;;3.40;3.10;;;14.70;99.90;;;;;;4813504;29;20283;-82
2021/10/05 12:31:27;;;;;;;3.17;2.97;;;14.60;99.90;;;;;;4857550;29;20463;-82
2021/10/05 12:34:10;;;;;;;3.20;2.93;;;15.10;99.90;;;;;;4804785;29;20488;-83
2021/10/05 12:36:39;;;;;;;3.07;2.77;;;15.30;99.90;;;;;;4793525;29;21937;-81
2021/10/05 12:39:11;;;;;;;2.93;2.73;;;15.50;99.90;;;;;;4755680;30;20487;-83
2021/10/05 12:41:41;;;;;;;3.00;2.80;;;15.40;99.90;;;;;;4816506;29;20226;-82
2021/10/05 12:44:19;;;;;;;3.00;2.80;;;15.30;99.90;;;;;;4812160;29;20527;-82
2021/10/05 12:47:10;;;;;;;3.40;3.20;;;15.40;99.90;;;;;;4775363;29;20536;-82
2021/10/05 12:49:54;;;;;;;3.70;2.63;;;15.90;99.90;;;;;;4830586;29;20972;-82
2021/10/05 12:52:49;;;;;;;3.17;2.97;;;16.50;99.90;;;;;;4828870;29;20515;-82
2021/10/05 12:55:16;;;;;;;2.20;2.10;;;16.50;99.90;;;;;;4808647;29;20457;-82
2021/10/05 12:57:45;;;;;;;3.03;2.83;;;16.90;99.90;;;;;;4803590;29;20529;-82
2021/10/05 13:00:16;;;;;;;2.80;2.53;;;16.80;99.90;;;;;;4766525;29;20974;-81
2021/10/05 13:02:49;;;;;;;2.30;2.20;;;16.50;99.90;;;;;;4769480;29;20446;-83
2021/10/05 13:05:36;;;;;;;2.27;2.07;;;15.60;99.90;;;;;;4861075;29;20435;-82
2021/10/05 13:08:06;;;;;;;4.17;2.50;;;15.90;99.90;;;;;;4888602;29;20494;-82
2021/10/05 13:10:37;;;;;;;2.70;2.50;;;15.20;99.90;;;;;;4860594;29;20577;-81
2021/10/05 13:13:26;;;;;;;2.37;2.20;;;15.10;99.90;;;;;;4892160;29;20525;-78
2021/10/05 13:15:52;;;;;;;2.80;2.60;;;14.80;99.90;;;;;;4868216;29;20525;-80
2021/10/05 13:18:19;;;;;;;3.50;2.50;;;14.90;99.90;;;;;;4885413;29;20484;-83
2021/10/05 13:20:45;;;;;;;3.73;2.60;;;14.90;99.90;;;;;;4884373;29;20602;-82
2021/10/05 13:23:11;;;;;;;3.23;2.50;;;14.90;99.90;;;;;;4884930;29;20486;-81
2021/10/05 13:25:37;;;;;;;2.43;2.10;;;14.70;99.90;;;;;;4873587;29;20915;-82
2021/10/05 13:28:03;;;;;;;2.83;2.63;;;15.00;99.90;;;;;;4880366;29;20205;-82
2021/10/05 13:30:29;;;;;;;3.20;2.90;;;15.10;99.90;;;;;;4896976;29;20228;-82
2021/10/05 13:32:54;;;;;;;2.53;2.33;;;15.30;99.90;;;;;;4906470;29;20443;-82